Time;durP1;ratioP1;P1;durP2;ratioP2;P2;SDS_P1;SDS_P2;PMS_P1;PMS_P2;Temp;Humidity;BMP_temperature;BMP_pressure;BME280_temperature;BME280_humidity;BME280_pressure;Samples;Min_cycle;Max_cycle;Signal;HPM_P1;HPM_P2
2023/02/09 00:03:18;;;;;;;4.03;2.72;;;14.00;64.10;;;;;;10488993;28;20059;-56
2023/02/09 00:08:19;;;;;;;4.57;2.83;;;14.00;64.20;;;;;;10481186;28;20127;-57
2023/02/09 00:13:21;;;;;;;3.75;2.90;;;14.00;64.10;;;;;;10471019;28;20143;-57
2023/02/09 00:18:24;;;;;;;4.07;2.50;;;14.00;64.10;;;;;;10470805;28;20090;-57
2023/02/09 00:23:27;;;;;;;3.83;2.72;;;13.90;64.00;;;;;;10480249;28;20037;-54
2023/02/09 00:28:28;;;;;;;3.65;2.80;;;13.90;64.10;;;;;;10469985;28;20044;-57
2023/02/09 00:33:29;;;;;;;3.85;2.70;;;13.90;64.10;;;;;;10453623;28;20032;-57
2023/02/09 00:38:30;;;;;;;4.45;2.88;;;13.90;64.10;;;;;;10487933;28;20483;-56
2023/02/09 00:43:31;;;;;;;4.32;3.00;;;13.80;64.00;;;;;;10462115;28;20123;-57
2023/02/09 00:48:33;;;;;;;4.60;2.72;;;13.80;63.40;;;;;;10463616;28;20033;-56
2023/02/09 00:53:33;;;;;;;3.75;2.83;;;13.90;62.90;;;;;;10472105;28;20024;-56
2023/02/09 00:58:34;;;;;;;4.40;3.00;;;13.80;63.50;;;;;;10487819;28;20440;-56
2023/02/09 01:03:35;;;;;;;3.58;2.58;;;13.80;63.70;;;;;;10487547;28;20560;-55
2023/02/09 01:08:36;;;;;;;4.40;2.72;;;13.70;63.60;;;;;;10487512;28;20108;-56
2023/02/09 01:13:37;;;;;;;3.85;2.85;;;13.70;63.70;;;;;;10469878;28;20083;-56
2023/02/09 01:18:38;;;;;;;4.43;2.83;;;13.70;63.80;;;;;;10487892;28;20426;-56
2023/02/09 01:23:38;;;;;;;3.53;2.72;;;13.70;63.90;;;;;;10498063;28;20028;-57
2023/02/09 01:28:40;;;;;;;3.67;2.60;;;13.70;63.90;;;;;;10468732;28;20415;-57
2023/02/09 01:33:40;;;;;;;4.20;2.97;;;13.70;63.90;;;;;;10471918;28;20569;-55
2023/02/09 01:38:41;;;;;;;4.88;2.70;;;13.70;63.80;;;;;;10446255;28;20070;-56
2023/02/09 01:44:06;;;;;;;5.65;3.20;;;13.60;63.40;;;;;;10468564;28;20052;-56
2023/02/09 01:49:13;;;;;;;3.60;2.67;;;13.70;62.90;;;;;;10486768;28;20035;-56
2023/02/09 01:54:37;;;;;;;3.85;2.95;;;13.60;63.10;;;;;;10469395;28;20017;-57
2023/02/09 01:59:41;;;;;;;3.78;2.67;;;13.60;63.70;;;;;;10480017;28;20037;-55
2023/02/09 02:04:43;;;;;;;4.72;3.72;;;13.60;63.70;;;;;;10476210;28;20694;-57
2023/02/09 02:09:45;;;;;;;3.83;2.80;;;13.60;63.60;;;;;;10475636;28;20029;-56
2023/02/09 02:14:45;;;;;;;5.00;3.10;;;13.60;63.80;;;;;;10475507;28;20487;-57
2023/02/09 02:20:00;;;;;;;3.92;2.85;;;13.50;63.70;;;;;;10478318;28;20077;-57
2023/02/09 02:25:19;;;;;;;3.63;2.47;;;13.60;63.90;;;;;;10493124;28;20024;-56
2023/02/09 02:30:35;;;;;;;4.17;2.53;;;13.50;63.90;;;;;;10492371;28;20056;-56
2023/02/09 02:36:12;;;;;;;4.25;2.90;;;13.50;63.80;;;;;;10495837;28;20472;-56
2023/02/09 02:47:10;;;;;;;4.35;3.10;;;13.50;64.00;;;;;;10438044;28;20487;-57
2023/02/09 02:52:11;;;;;;;4.97;3.47;;;13.40;63.90;;;;;;10474449;28;20032;-56
2023/02/09 02:57:18;;;;;;;4.30;3.10;;;13.50;64.00;;;;;;10473523;28;20072;-56
2023/02/09 03:02:25;;;;;;;3.05;2.10;;;13.40;63.90;;;;;;10448129;28;20802;-56
2023/02/09 03:07:26;;;;;;;4.07;2.63;;;13.40;63.20;;;;;;10479249;28;20075;-55
2023/02/09 03:12:53;;;;;;;3.20;2.45;;;13.40;63.00;;;;;;10472688;28;20573;-57
2023/02/09 03:18:09;;;;;;;4.20;2.88;;;13.40;63.20;;;;;;10472932;28;20029;-57
2023/02/09 03:23:38;;;;;;;3.47;2.45;;;13.40;63.60;;;;;;10473630;28;20052;-56
2023/02/09 03:28:41;;;;;;;4.07;2.58;;;13.40;63.60;;;;;;10472919;28;20630;-57
2023/02/09 03:33:42;;;;;;;3.17;2.47;;;13.40;63.50;;;;;;10473684;28;20050;-56
2023/02/09 03:38:43;;;;;;;3.50;2.17;;;13.40;63.70;;;;;;10483203;28;20602;-56
2023/02/09 03:49:03;;;;;;;3.35;2.42;;;13.50;62.90;;;;;;10489923;28;20472;-57
2023/02/09 03:54:04;;;;;;;4.22;2.40;;;13.70;62.40;;;;;;10455207;28;20028;-57
2023/02/09 03:59:05;;;;;;;3.50;2.28;;;13.80;61.90;;;;;;10471650;28;20118;-55
2023/02/09 04:04:06;;;;;;;3.33;2.30;;;13.90;61.70;;;;;;10496395;28;20111;-56
2023/02/09 04:09:08;;;;;;;3.88;2.70;;;14.10;61.40;;;;;;10454059;28;20124;-57
2023/02/09 04:14:09;;;;;;;3.65;2.72;;;14.30;61.00;;;;;;10470903;28;20055;-57
2023/02/09 04:19:10;;;;;;;3.55;2.38;;;14.40;60.50;;;;;;10483161;28;20768;-56
2023/02/09 04:24:11;;;;;;;3.42;2.08;;;14.60;60.00;;;;;;10493310;28;20085;-57
2023/02/09 04:29:11;;;;;;;3.33;1.90;;;14.80;59.50;;;;;;10470245;28;20041;-57
2023/02/09 04:34:12;;;;;;;4.47;3.90;;;15.00;59.00;;;;;;10498041;28;20028;-56
2023/02/09 04:39:13;;;;;;;3.47;1.92;;;15.10;58.80;;;;;;10472555;28;20154;-57
2023/02/09 04:44:13;;;;;;;2.72;1.80;;;15.10;58.60;;;;;;10487936;28;20103;-57
2023/02/09 04:49:14;;;;;;;6.15;2.30;;;15.20;58.40;;;;;;10499026;28;20483;-57
2023/02/09 04:54:15;;;;;;;5.05;2.55;;;15.20;58.30;;;;;;10461708;28;20033;-57
2023/02/09 04:59:33;;;;;;;3.10;2.17;;;15.40;57.40;;;;;;10470496;28;20022;-57
2023/02/09 05:04:34;;;;;;;4.88;2.17;;;15.60;56.80;;;;;;10458711;28;20527;-56
2023/02/09 05:09:35;;;;;;;5.75;2.17;;;15.60;56.50;;;;;;10469021;28;20032;-57
2023/02/09 05:14:37;;;;;;;2.72;1.83;;;15.60;57.00;;;;;;10484913;28;20025;-56
2023/02/09 05:19:37;;;;;;;5.50;2.05;;;15.60;57.00;;;;;;10451222;28;20032;-57
2023/02/09 05:24:38;;;;;;;2.47;1.95;;;15.60;56.90;;;;;;10483646;28;20535;-57
2023/02/09 05:29:39;;;;;;;3.58;2.10;;;15.70;56.70;;;;;;10483078;28;20045;-58
2023/02/09 05:34:40;;;;;;;3.90;3.17;;;15.70;56.80;;;;;;10471626;28;20533;-55
2023/02/09 05:39:40;;;;;;;4.00;1.70;;;15.80;56.80;;;;;;10473074;28;20117;-55
2023/02/09 05:44:49;;;;;;;3.53;1.95;;;15.80;56.90;;;;;;10473300;28;20494;-57
2023/02/09 05:49:51;;;;;;;2.63;1.60;;;15.80;57.00;;;;;;10481819;28;20029;-58
2023/02/09 05:54:52;;;;;;;3.50;1.83;;;15.80;57.00;;;;;;10473070;28;20512;-55
2023/02/09 05:59:52;;;;;;;2.65;1.70;;;15.80;56.90;;;;;;10490404;28;20043;-56
2023/02/09 06:04:53;;;;;;;2.58;1.92;;;15.90;56.90;;;;;;10502916;28;20107;-56
2023/02/09 06:09:54;;;;;;;4.72;1.80;;;15.90;57.00;;;;;;10472833;28;20029;-58
2023/02/09 06:14:55;;;;;;;6.38;2.08;;;15.90;57.60;;;;;;10490228;28;20579;-55
2023/02/09 06:19:55;;;;;;;4.13;1.98;;;16.00;58.80;;;;;;10471704;28;20111;-54
2023/02/09 06:24:56;;;;;;;6.40;2.08;;;15.90;58.80;;;;;;10471625;28;20025;-57
2023/02/09 06:29:57;;;;;;;4.35;1.67;;;15.90;59.60;;;;;;10447192;28;20052;-56
2023/02/09 06:34:58;;;;;;;7.22;2.72;;;16.00;58.90;;;;;;10476797;28;20149;-55
2023/02/09 06:39:58;;;;;;;5.38;2.00;;;16.20;59.00;;;;;;10489420;28;20124;-52
2023/02/09 06:44:59;;;;;;;6.05;2.40;;;16.20;59.00;;;;;;10487188;28;20048;-54
2023/02/09 06:49:59;;;;;;;16.80;2.58;;;16.20;59.00;;;;;;10467302;28;20563;-56
2023/02/09 06:55:00;;;;;;;5.25;2.10;;;16.10;58.90;;;;;;10470757;28;20069;-55
2023/02/09 07:00:03;;;;;;;13.70;2.72;;;16.10;59.30;;;;;;10472052;28;20048;-56
2023/02/09 07:05:04;;;;;;;9.38;2.83;;;16.10;59.30;;;;;;10492669;28;20037;-58
2023/02/09 07:10:07;;;;;;;9.60;3.05;;;16.10;59.50;;;;;;10489577;28;20032;-55
2023/02/09 07:15:10;;;;;;;11.68;2.75;;;16.20;59.10;;;;;;10471334;28;20021;-54
2023/02/09 07:20:12;;;;;;;10.30;2.70;;;16.20;58.30;;;;;;10458263;28;20036;-55
2023/02/09 07:25:13;;;;;;;6.82;3.13;;;16.20;57.80;;;;;;10488636;28;20017;-56
2023/02/09 07:30:15;;;;;;;9.95;3.05;;;16.40;57.30;;;;;;10445775;28;20476;-56
2023/02/09 07:35:15;;;;;;;6.80;2.72;;;16.40;57.10;;;;;;10447851;28;20032;-54
2023/02/09 07:40:16;;;;;;;8.18;2.25;;;16.40;56.90;;;;;;10446610;28;20460;-55
2023/02/09 07:45:17;;;;;;;4.95;2.78;;;16.30;57.00;;;;;;10447846;28;20036;-55
2023/02/09 07:50:17;;;;;;;6.53;2.20;;;16.40;56.90;;;;;;10451049;28;20029;-56
2023/02/09 07:55:18;;;;;;;6.43;3.10;;;16.30;56.90;;;;;;10443654;28;20018;-56
2023/02/09 08:00:19;;;;;;;4.82;1.80;;;16.20;57.70;;;;;;10442547;28;20025;-56
2023/02/09 08:05:32;;;;;;;6.35;2.75;;;16.20;58.50;;;;;;10451134;28;20036;-55
2023/02/09 08:10:33;;;;;;;6.53;4.18;;;16.20;58.40;;;;;;10457264;28;20056;-57
2023/02/09 08:15:59;;;;;;;7.40;2.50;;;16.20;58.40;;;;;;10448020;28;20658;-57
2023/02/09 08:20:59;;;;;;;5.60;2.67;;;16.30;58.50;;;;;;10436599;28;20404;-57
2023/02/09 08:26:06;;;;;;;5.63;2.38;;;16.30;58.50;;;;;;10434713;28;20066;-55
2023/02/09 08:31:07;;;;;;;3.92;1.85;;;16.30;58.40;;;;;;10454797;28;20115;-57
2023/02/09 08:36:09;;;;;;;4.93;2.13;;;16.40;58.20;;;;;;10431444;28;20142;-56
2023/02/09 08:41:13;;;;;;;6.18;1.95;;;16.50;58.60;;;;;;10433951;28;20036;-55
2023/02/09 08:46:14;;;;;;;5.03;2.42;;;16.50;58.00;;;;;;10444425;28;20041;-57
2023/02/09 08:51:16;;;;;;;9.80;3.25;;;16.50;58.00;;;;;;10441522;28;20052;-55
2023/02/09 08:56:19;;;;;;;4.00;2.20;;;16.50;58.20;;;;;;10438380;28;20083;-56
2023/02/09 09:01:19;;;;;;;10.85;2.38;;;16.50;58.10;;;;;;10443978;28;20694;-55
2023/02/09 09:06:21;;;;;;;3.40;1.52;;;16.50;58.10;;;;;;10459549;28;20545;-56
2023/02/09 09:11:22;;;;;;;4.88;2.08;;;16.50;58.00;;;;;;10450594;28;20426;-56
2023/02/09 09:16:23;;;;;;;4.03;2.10;;;16.50;58.00;;;;;;10453159;28;20023;-56
2023/02/09 09:21:24;;;;;;;4.22;2.30;;;16.50;58.00;;;;;;10451230;28;20009;-57
2023/02/09 09:26:25;;;;;;;4.80;2.17;;;16.60;58.00;;;;;;10437841;28;20028;-57
2023/02/09 09:31:25;;;;;;;3.92;1.70;;;16.60;57.90;;;;;;10503007;28;20081;-56
2023/02/09 09:36:26;;;;;;;4.15;2.40;;;16.60;58.00;;;;;;10495810;28;20059;-55
2023/02/09 09:41:35;;;;;;;4.47;1.90;;;16.60;58.00;;;;;;10494124;28;20025;-56
2023/02/09 09:46:44;;;;;;;4.20;2.40;;;16.60;57.90;;;;;;10497463;28;20035;-57
2023/02/09 09:51:59;;;;;;;3.30;1.90;;;16.60;57.90;;;;;;10483184;28;20028;-56
2023/02/09 09:57:00;;;;;;;2.72;1.77;;;16.60;57.80;;;;;;10477167;28;20270;-56
2023/02/09 10:02:16;;;;;;;3.38;2.00;;;16.70;58.00;;;;;;10482128;28;20419;-56
2023/02/09 10:07:20;;;;;;;3.38;1.90;;;16.70;58.00;;;;;;10495529;28;20345;-56
2023/02/09 10:12:49;;;;;;;2.85;1.80;;;16.70;57.80;;;;;;10476228;28;20406;-56
2023/02/09 10:17:50;;;;;;;3.97;2.38;;;16.70;58.00;;;;;;10478127;28;20412;-54
2023/02/09 10:22:51;;;;;;;4.43;2.88;;;16.70;57.90;;;;;;10490461;28;20017;-55
2023/02/09 10:27:51;;;;;;;2.85;1.90;;;16.80;57.70;;;;;;10470757;28;20040;-55
2023/02/09 10:32:57;;;;;;;3.55;2.03;;;16.80;57.60;;;;;;10469333;28;20248;-55
2023/02/09 10:38:01;;;;;;;5.18;2.10;;;16.80;57.80;;;;;;10470729;28;20023;-55
2023/02/09 10:43:06;;;;;;;3.55;1.85;;;16.90;57.70;;;;;;10455095;28;20021;-56
2023/02/09 10:48:12;;;;;;;3.45;2.42;;;16.90;57.80;;;;;;10472595;28;20155;-56
2023/02/09 10:53:31;;;;;;;2.80;1.88;;;16.90;58.00;;;;;;10489483;28;20024;-54
2023/02/09 10:58:36;;;;;;;2.53;1.73;;;16.80;58.30;;;;;;10489823;28;20472;-55
2023/02/09 11:03:56;;;;;;;3.83;2.45;;;16.60;58.70;;;;;;10471898;28;20042;-54
2023/02/09 11:09:17;;;;;;;3.67;2.17;;;16.50;59.30;;;;;;10471836;28;20491;-56
2023/02/09 11:14:19;;;;;;;3.05;2.47;;;16.30;59.70;;;;;;10471521;28;20030;-56
2023/02/09 11:19:24;;;;;;;3.45;1.92;;;16.30;60.00;;;;;;10452064;28;20025;-55
2023/02/09 11:25:02;;;;;;;3.35;2.30;;;16.10;60.40;;;;;;10488926;28;20098;-55
2023/02/09 11:30:19;;;;;;;2.55;1.80;;;16.30;60.10;;;;;;10472291;28;20121;-56
2023/02/09 11:35:38;;;;;;;4.35;2.25;;;16.20;60.00;;;;;;10470295;28;20013;-56
2023/02/09 11:40:54;;;;;;;3.35;2.30;;;16.30;60.00;;;;;;10471385;28;20375;-56
2023/02/09 11:46:19;;;;;;;3.05;1.90;;;16.20;60.00;;;;;;10470089;28;20024;-54
2023/02/09 11:51:25;;;;;;;4.25;1.95;;;16.20;60.00;;;;;;10469454;28;20037;-54
2023/02/09 11:56:27;;;;;;;4.00;2.50;;;16.20;60.10;;;;;;10469805;28;20016;-55
2023/02/09 12:01:34;;;;;;;2.90;2.22;;;16.20;60.10;;;;;;10469548;28;20070;-55
2023/02/09 12:06:41;;;;;;;2.78;2.20;;;16.20;60.20;;;;;;10487202;28;20119;-56
2023/02/09 12:12:06;;;;;;;3.22;2.00;;;16.20;60.20;;;;;;10441283;28;20025;-57
2023/02/09 12:17:39;;;;;;;2.63;1.85;;;16.20;60.20;;;;;;10465447;28;20017;-56
2023/02/09 12:22:49;;;;;;;4.75;3.00;;;16.20;60.00;;;;;;10474061;28;20055;-54
2023/02/09 12:28:08;;;;;;;2.78;1.80;;;16.10;60.20;;;;;;10468869;28;20044;-54
2023/02/09 12:33:24;;;;;;;3.33;2.20;;;16.10;60.40;;;;;;10486875;28;20108;-56
2023/02/09 12:38:39;;;;;;;4.00;2.03;;;16.10;60.40;;;;;;10486050;28;20386;-56
2023/02/09 12:43:43;;;;;;;3.88;2.22;;;16.00;60.50;;;;;;10485642;28;20094;-56
2023/02/09 12:49:12;;;;;;;4.00;2.10;;;16.00;60.50;;;;;;10485841;28;20021;-54
2023/02/09 12:54:35;;;;;;;4.20;2.33;;;16.00;60.50;;;;;;10455382;28;20457;-55
2023/02/09 12:59:35;;;;;;;5.35;3.03;;;16.00;60.40;;;;;;10485604;28;20432;-54
2023/02/09 13:05:11;;;;;;;3.45;2.20;;;16.00;60.40;;;;;;10467532;28;20108;-55
2023/02/09 13:10:23;;;;;;;3.08;1.98;;;16.00;60.40;;;;;;10485459;28;20174;-56
2023/02/09 13:15:32;;;;;;;4.50;2.22;;;16.10;60.30;;;;;;10468074;28;20038;-56
2023/02/09 13:21:09;;;;;;;2.33;1.40;;;16.00;60.40;;;;;;10471859;28;20031;-56
2023/02/09 13:26:33;;;;;;;4.18;2.70;;;16.00;60.40;;;;;;10485958;28;20025;-55
2023/02/09 13:31:38;;;;;;;3.13;2.17;;;16.00;60.50;;;;;;10467394;28;20171;-56
2023/02/09 13:37:08;;;;;;;3.05;2.53;;;15.90;60.70;;;;;;10485293;28;20028;-56
2023/02/09 13:42:35;;;;;;;4.10;2.80;;;16.00;60.90;;;;;;10484701;28;20086;-56
2023/02/09 13:47:41;;;;;;;3.63;2.38;;;16.00;60.50;;;;;;10433107;28;20495;-54
2023/02/09 13:52:42;;;;;;;3.17;2.50;;;16.00;60.40;;;;;;10467195;28;20043;-55
2023/02/09 13:57:49;;;;;;;4.80;2.15;;;16.00;60.30;;;;;;10491943;28;20456;-55
2023/02/09 14:03:01;;;;;;;3.03;1.80;;;16.10;60.30;;;;;;10491813;28;20021;-56
2023/02/09 14:08:02;;;;;;;3.67;1.85;;;16.00;60.30;;;;;;10491858;28;20103;-55
2023/02/09 14:13:17;;;;;;;5.28;3.08;;;16.10;60.30;;;;;;10473902;28;20040;-55
2023/02/09 14:18:53;;;;;;;3.63;2.13;;;16.00;60.30;;;;;;10473321;28;20036;-55
2023/02/09 14:23:57;;;;;;;3.08;1.92;;;16.00;60.30;;;;;;10457181;28;20021;-56
2023/02/09 14:29:22;;;;;;;3.70;2.25;;;16.10;60.30;;;;;;10491269;28;20460;-55
2023/02/09 14:34:35;;;;;;;2.60;1.83;;;16.00;60.20;;;;;;10491051;28;20810;-55
2023/02/09 14:40:29;;;;;;;3.30;2.20;;;16.00;60.20;;;;;;10473798;28;20017;-55
2023/02/09 14:45:45;;;;;;;3.72;2.22;;;16.10;60.20;;;;;;10469257;28;20135;-56
2023/02/09 14:50:57;;;;;;;3.17;1.83;;;16.00;60.20;;;;;;10473009;28;20063;-55
2023/02/09 14:55:58;;;;;;;3.50;2.13;;;16.10;60.20;;;;;;10472673;28;20012;-55
2023/02/09 15:01:01;;;;;;;3.10;2.03;;;16.10;60.20;;;;;;10489923;28;20027;-55
2023/02/09 15:06:03;;;;;;;2.75;2.08;;;16.00;60.20;;;;;;10488730;28;20542;-55
2023/02/09 15:16:30;;;;;;;2.97;1.98;;;16.00;60.10;;;;;;10474672;28;20025;-55
2023/02/09 15:21:31;;;;;;;4.20;2.33;;;16.00;60.10;;;;;;10488970;28;20048;-55
2023/02/09 15:26:35;;;;;;;3.42;2.25;;;16.00;60.10;;;;;;10488628;28;20070;-55
2023/02/09 15:31:35;;;;;;;3.50;2.50;;;16.10;59.90;;;;;;10471163;28;20646;-56
2023/02/09 15:36:37;;;;;;;4.10;2.60;;;16.10;59.80;;;;;;10488940;28;20031;-56
2023/02/09 15:52:17;;;;;;;3.83;2.10;;;16.10;59.70;;;;;;10488205;28;20411;-54
2023/02/09 15:57:17;;;;;;;3.25;2.03;;;16.10;59.70;;;;;;10469524;28;20021;-56
2023/02/09 16:02:18;;;;;;;3.33;2.45;;;16.10;59.80;;;;;;10469616;28;20016;-55
2023/02/09 16:07:24;;;;;;;2.90;2.00;;;16.10;59.80;;;;;;10469184;28;20013;-56
2023/02/09 16:12:25;;;;;;;4.90;2.65;;;16.10;59.80;;;;;;10468982;28;20020;-54
2023/02/09 16:17:26;;;;;;;3.42;2.20;;;16.10;59.80;;;;;;10468479;28;20012;-56
2023/02/09 16:22:26;;;;;;;4.18;2.60;;;16.10;59.80;;;;;;10495182;28;20139;-54
2023/02/09 16:27:28;;;;;;;3.38;2.20;;;16.00;59.70;;;;;;10488562;28;20553;-54
2023/02/09 16:32:28;;;;;;;3.75;2.45;;;16.10;59.60;;;;;;10490454;28;20025;-57
2023/02/09 16:37:30;;;;;;;3.20;2.58;;;16.10;59.60;;;;;;10474346;28;20021;-56
2023/02/09 16:42:31;;;;;;;4.60;2.45;;;16.10;59.50;;;;;;10442491;28;20032;-55
2023/02/09 16:47:32;;;;;;;3.80;2.17;;;16.10;59.50;;;;;;10497621;28;20133;-56
2023/02/09 16:52:33;;;;;;;3.03;2.22;;;16.20;59.40;;;;;;10469712;28;20467;-58
2023/02/09 16:57:34;;;;;;;9.80;3.65;;;16.10;59.30;;;;;;10482224;28;20364;-57
2023/02/09 17:02:42;;;;;;;8.63;3.58;;;16.20;59.20;;;;;;10469748;28;20040;-57
2023/02/09 17:07:43;;;;;;;11.50;3.47;;;16.40;60.00;;;;;;10481459;28;20036;-56
2023/02/09 17:12:44;;;;;;;13.38;4.20;;;16.50;60.00;;;;;;10470101;28;20025;-58
2023/02/09 17:17:50;;;;;;;11.73;3.80;;;16.40;60.90;;;;;;10460743;28;20021;-55
2023/02/09 17:22:54;;;;;;;11.70;3.75;;;16.30;61.80;;;;;;10467751;28;20098;-57
2023/02/09 17:27:54;;;;;;;12.90;4.45;;;16.30;61.50;;;;;;10475743;28;20174;-57
2023/02/09 17:33:01;;;;;;;12.57;4.18;;;16.20;62.00;;;;;;10474999;28;20013;-56
2023/02/09 17:38:02;;;;;;;10.77;4.03;;;16.20;61.10;;;;;;10470655;28;20033;-56
2023/02/09 17:43:04;;;;;;;14.07;5.03;;;16.20;61.00;;;;;;10494504;28;20105;-55
2023/02/09 17:48:05;;;;;;;9.48;4.05;;;16.20;61.50;;;;;;10504696;28;20377;-57
2023/02/09 17:53:16;;;;;;;12.07;4.47;;;16.30;61.40;;;;;;10474443;28;20372;-57
2023/02/09 17:58:17;;;;;;;12.77;4.35;;;16.30;61.30;;;;;;10472952;28;20021;-56
2023/02/09 18:03:20;;;;;;;13.10;4.53;;;16.30;61.20;;;;;;10493679;28;20044;-57
2023/02/09 18:08:21;;;;;;;10.80;4.13;;;16.20;61.50;;;;;;10483383;28;20067;-57
2023/02/09 18:13:24;;;;;;;12.73;3.95;;;16.10;61.60;;;;;;10476126;28;20048;-57
2023/02/09 18:18:24;;;;;;;12.70;4.18;;;16.10;61.40;;;;;;10460074;28;20406;-57
2023/02/09 18:23:25;;;;;;;8.00;4.50;;;16.10;61.40;;;;;;10474767;28;20020;-57
2023/02/09 18:28:26;;;;;;;14.82;4.60;;;16.10;61.20;;;;;;10493338;28;20040;-56
2023/02/09 18:33:27;;;;;;;8.15;4.25;;;16.10;61.40;;;;;;10457209;28;20052;-56
2023/02/09 18:38:28;;;;;;;9.32;4.30;;;16.10;61.30;;;;;;10492414;28;20418;-56
2023/02/09 18:43:29;;;;;;;9.32;4.25;;;16.10;61.20;;;;;;10474018;28;20551;-57
2023/02/09 18:48:30;;;;;;;8.75;2.95;;;16.10;61.10;;;;;;10475008;28;20032;-56
2023/02/09 18:53:30;;;;;;;10.00;3.55;;;16.10;61.00;;;;;;10492605;28;20639;-57
2023/02/09 18:58:31;;;;;;;7.38;4.68;;;16.20;61.00;;;;;;10444410;28;20634;-56
2023/02/09 19:03:32;;;;;;;6.22;4.10;;;16.10;61.00;;;;;;10473018;28;20036;-58
2023/02/09 19:08:32;;;;;;;15.13;4.00;;;16.10;61.30;;;;;;10483749;28;20112;-55
2023/02/09 19:13:34;;;;;;;5.28;3.25;;;16.10;61.20;;;;;;10491512;28;20106;-57
2023/02/09 19:18:35;;;;;;;7.68;3.63;;;16.20;61.20;;;;;;10480687;28;20064;-57
2023/02/09 19:23:35;;;;;;;7.82;4.05;;;16.20;61.10;;;;;;10490159;28;20099;-57
2023/02/09 19:28:36;;;;;;;6.47;4.32;;;16.10;61.00;;;;;;10491380;28;20119;-57
2023/02/09 19:33:37;;;;;;;6.78;3.97;;;16.10;61.00;;;;;;10471708;28;20502;-55
2023/02/09 19:38:37;;;;;;;6.63;3.70;;;16.20;60.90;;;;;;10488049;28;20093;-54
2023/02/09 19:43:41;;;;;;;5.88;4.22;;;16.20;60.90;;;;;;10470475;28;20023;-58
2023/02/09 19:48:42;;;;;;;9.20;4.72;;;16.20;61.00;;;;;;10472546;28;20036;-58
2023/02/09 19:53:43;;;;;;;7.35;4.13;;;16.20;61.50;;;;;;10441650;28;20043;-56
2023/02/09 19:58:44;;;;;;;6.38;3.95;;;16.20;60.90;;;;;;10490272;28;20511;-56
2023/02/09 20:03:46;;;;;;;5.75;4.20;;;16.10;60.80;;;;;;10509670;28;20558;-56
2023/02/09 20:08:47;;;;;;;5.63;3.83;;;16.20;60.80;;;;;;10493475;28;20025;-57
2023/02/09 20:13:50;;;;;;;8.77;3.95;;;16.20;60.50;;;;;;10454567;28;20427;-53
2023/02/09 20:18:52;;;;;;;5.85;4.13;;;16.20;60.50;;;;;;10453083;28;20028;-55
2023/02/09 20:23:56;;;;;;;5.35;3.75;;;16.10;60.40;;;;;;10481873;28;20032;-54
2023/02/09 20:28:58;;;;;;;8.00;3.92;;;16.10;60.40;;;;;;10443407;28;20473;-55
2023/02/09 20:33:59;;;;;;;6.10;4.05;;;16.10;60.40;;;;;;10482730;28;20115;-55
2023/02/09 20:39:03;;;;;;;5.45;3.55;;;16.00;60.70;;;;;;10478160;28;20250;-56
2023/02/09 20:49:30;;;;;;;5.40;3.63;;;15.80;61.20;;;;;;10484592;28;20036;-56
2023/02/09 20:54:31;;;;;;;9.50;4.25;;;15.60;61.50;;;;;;10484416;28;20112;-56
2023/02/09 20:59:32;;;;;;;8.00;4.10;;;15.60;61.80;;;;;;10484005;28;20024;-55
2023/02/09 21:04:33;;;;;;;6.50;4.60;;;15.50;62.40;;;;;;10489985;28;20028;-55
2023/02/09 21:09:34;;;;;;;6.03;4.45;;;15.40;62.20;;;;;;10483673;28;20107;-55
2023/02/09 21:14:35;;;;;;;6.45;3.95;;;15.30;62.20;;;;;;10470185;28;20024;-55
2023/02/09 21:19:36;;;;;;;6.22;4.05;;;15.20;62.20;;;;;;10483332;28;20020;-55
2023/02/09 21:24:38;;;;;;;7.40;4.10;;;15.20;62.30;;;;;;10483741;28;20468;-56
2023/02/09 21:29:39;;;;;;;7.30;5.07;;;15.10;62.30;;;;;;10468071;28;20128;-56
2023/02/09 21:34:41;;;;;;;7.68;5.13;;;15.00;62.10;;;;;;10482858;28;20618;-56
2023/02/09 21:39:42;;;;;;;9.05;5.63;;;15.00;62.20;;;;;;10481210;28;20025;-55
2023/02/09 21:44:42;;;;;;;6.80;4.47;;;15.00;62.40;;;;;;10452657;28;20100;-56
2023/02/09 21:49:43;;;;;;;6.60;4.50;;;14.90;62.40;;;;;;10468760;28;20124;-56
2023/02/09 21:54:44;;;;;;;7.60;5.05;;;14.90;62.60;;;;;;10493585;28;20104;-55
2023/02/09 21:59:44;;;;;;;6.63;4.40;;;14.80;62.50;;;;;;10468897;28;20021;-54
2023/02/09 22:04:45;;;;;;;9.85;5.50;;;14.80;62.60;;;;;;10486605;28;20115;-57
2023/02/09 22:09:46;;;;;;;6.22;4.35;;;14.80;62.60;;;;;;10473798;28;20037;-55
2023/02/09 22:14:47;;;;;;;7.30;5.55;;;14.70;62.60;;;;;;10471064;28;20577;-57
2023/02/09 22:19:48;;;;;;;7.78;4.93;;;14.70;62.70;;;;;;10478861;28;20107;-56
2023/02/09 22:24:48;;;;;;;6.95;4.40;;;14.70;62.90;;;;;;10474839;28;20119;-54
2023/02/09 22:29:49;;;;;;;7.10;5.13;;;14.60;63.20;;;;;;10492737;28;20047;-56
2023/02/09 22:34:49;;;;;;;5.53;4.28;;;14.60;63.40;;;;;;10474689;28;20415;-55
2023/02/09 22:39:50;;;;;;;7.00;4.75;;;14.60;63.60;;;;;;10493309;28;20154;-56
2023/02/09 22:44:51;;;;;;;7.53;4.45;;;14.50;63.50;;;;;;10474987;28;20112;-56
2023/02/09 22:49:52;;;;;;;6.07;4.60;;;14.50;63.60;;;;;;10474843;28;20136;-56
2023/02/09 22:54:52;;;;;;;6.70;5.22;;;14.50;63.70;;;;;;10474455;28;20492;-56
2023/02/09 22:59:53;;;;;;;6.15;4.25;;;14.40;63.40;;;;;;10482600;28;20115;-55
2023/02/09 23:04:54;;;;;;;7.25;4.47;;;14.40;63.80;;;;;;10491952;28;20052;-57
2023/02/09 23:09:54;;;;;;;6.90;5.10;;;14.40;63.70;;;;;;10464731;28;20178;-56
2023/02/09 23:14:55;;;;;;;7.20;5.60;;;14.40;63.60;;;;;;10491415;28;20108;-56
2023/02/09 23:19:56;;;;;;;5.55;3.88;;;14.30;63.50;;;;;;10497382;28;20048;-56
2023/02/09 23:24:56;;;;;;;7.38;5.03;;;14.30;63.40;;;;;;10472837;28;20101;-56
2023/02/09 23:29:57;;;;;;;5.90;4.88;;;14.30;63.70;;;;;;10479753;28;20143;-57
2023/02/09 23:34:57;;;;;;;6.70;4.60;;;14.30;63.80;;;;;;10490905;28;20597;-57
2023/02/09 23:39:58;;;;;;;6.13;4.53;;;14.30;64.00;;;;;;10476390;28;20456;-56
2023/02/09 23:44:59;;;;;;;7.53;4.60;;;14.30;63.80;;;;;;10490812;28;20036;-56
2023/02/09 23:49:59;;;;;;;6.22;4.80;;;14.20;63.80;;;;;;10472281;28;20044;-56
2023/02/09 23:55:02;;;;;;;5.40;4.72;;;14.20;63.90;;;;;;10471733;28;20020;-55
